Malta, Ohio
Current Conditions -  °F | °C
As of 6:53 PM on Sunday 23 Nov 2014 (Local Time) from KZZV Reporting Station
Light Rain Light Rain  
Wind Chill: 57°   Ceiling: 9500
Heat Index: 57°   Visibility: 10mi
Dew Point: 45°   Wind: 9mph
Humidity: 64%   Direction: 140°SE
Pressure: 29.64"   Gusts: NA
Location:  39.65°N, 81.86°W
Report Text: KZZV 232353Z AUTO 14008KT 10SM -RA FEW070 OVC095 14/07 A2964 RMK AO2 SLP037 P0000 60000 T01390072 10167 20139 58041
Loading
Personal Weather Stations






























Interactive Weather Map New forecast layout! Learn more

10-Day Weather Forecast

Advertisements
Track Severe Weather on mobile